Time;durP1;ratioP1;P1;durP2;ratioP2;P2;SDS_P1;SDS_P2;PMS_P1;PMS_P2;Temp;Humidity;BMP_temperature;BMP_pressure;BME280_temperature;BME280_humidity;BME280_pressure;Samples;Min_cycle;Max_cycle;Signal;HPM_P1;HPM_P2
2022/01/18 00:01:37;;;;;;;21.55;4.40;;;6.20;99.90;;;7.00;100.00;102556.63;4980360;28;20097;-84
2022/01/18 00:04:04;;;;;;;30.15;6.32;;;6.20;99.90;;;7.03;100.00;102545.75;4980323;28;20395;-85
2022/01/18 00:06:30;;;;;;;27.33;5.18;;;6.20;99.90;;;7.06;100.00;102555.47;4981184;28;20038;-85
2022/01/18 00:08:56;;;;;;;26.70;5.63;;;6.20;99.90;;;7.02;100.00;102558.00;4977746;28;20065;-84
2022/01/18 00:11:25;;;;;;;28.10;5.40;;;6.30;99.90;;;7.02;100.00;102558.00;4977760;28;20101;-84
2022/01/18 00:13:58;;;;;;;27.08;6.10;;;6.20;99.90;;;6.97;100.00;102558.00;4977380;28;20085;-85
2022/01/18 00:16:40;;;;;;;33.20;7.43;;;6.20;99.90;;;7.01;100.00;102574.94;4993627;28;20117;-84
2022/01/18 00:19:10;;;;;;;25.45;5.88;;;6.20;99.90;;;6.99;100.00;102577.19;4977501;28;20030;-85
2022/01/18 00:21:52;;;;;;;19.77;5.03;;;6.20;99.90;;;6.94;100.00;102577.19;4977354;28;20049;-85
2022/01/18 00:24:18;;;;;;;27.20;6.95;;;6.20;99.90;;;6.87;100.00;102572.78;5009905;28;20030;-84
2022/01/18 00:26:44;;;;;;;22.40;5.85;;;6.20;99.90;;;6.86;100.00;102573.94;4961974;28;20058;-85
2022/01/18 00:29:14;;;;;;;29.45;6.70;;;6.10;99.90;;;6.88;100.00;102580.03;4942733;28;20509;-84
2022/01/18 00:34:15;;;;;;;23.77;6.18;;;6.20;99.90;;;6.90;100.00;102585.31;4976791;28;20031;-84
2022/01/18 00:39:14;;;;;;;27.48;6.47;;;6.10;99.90;;;7.11;100.00;102586.00;4975941;28;20026;-84
2022/01/18 00:41:41;;;;;;;25.45;5.90;;;6.20;99.90;;;7.08;100.00;102601.31;4958950;28;20031;-85
2022/01/18 00:44:10;;;;;;;32.40;5.28;;;6.30;99.90;;;7.02;100.00;102605.22;4959848;28;20099;-85
2022/01/18 00:46:39;;;;;;;30.15;5.45;;;6.20;99.90;;;7.01;100.00;102602.72;4965292;28;20031;-88
2022/01/18 00:49:05;;;;;;;25.92;5.82;;;6.20;99.90;;;7.04;100.00;102616.03;4975702;28;20034;-85
2022/01/18 00:51:38;;;;;;;35.72;5.40;;;6.20;99.90;;;6.99;100.00;102610.53;4959417;28;20085;-84
2022/01/18 00:54:21;;;;;;;27.08;5.03;;;6.10;99.90;;;6.94;100.00;102622.50;4959325;28;20419;-85
2022/01/18 00:56:51;;;;;;;17.73;4.53;;;6.10;99.90;;;6.88;100.00;102618.06;4959155;28;20058;-84
2022/01/18 00:59:17;;;;;;;22.85;5.13;;;6.10;99.90;;;6.85;100.00;102608.38;4958489;28;20035;-84
2022/01/18 01:01:43;;;;;;;24.00;5.28;;;6.10;99.90;;;6.83;100.00;102610.63;4957928;28;20019;-83
2022/01/18 01:04:10;;;;;;;17.02;4.65;;;6.10;99.90;;;6.80;100.00;102602.88;4957793;28;20037;-84
2022/01/18 01:06:37;;;;;;;27.08;6.20;;;6.00;99.90;;;6.83;100.00;102607.00;4958439;28;20058;-85
2022/01/18 01:09:06;;;;;;;35.63;6.60;;;6.00;99.90;;;7.03;100.00;102606.88;4958694;28;20096;-83
2022/01/18 01:11:38;;;;;;;32.70;6.05;;;6.10;99.90;;;6.94;100.00;102603.03;4960269;28;20035;-85
2022/01/18 01:14:12;;;;;;;24.38;6.13;;;6.10;99.90;;;6.87;100.00;102614.47;4959558;28;20034;-83
2022/01/18 01:16:50;;;;;;;28.75;5.85;;;6.10;99.90;;;6.85;100.00;102611.16;4959956;28;20093;-85
2022/01/18 01:19:45;;;;;;;25.90;4.53;;;6.00;99.90;;;6.83;100.00;102612.56;4976072;28;20031;-84
2022/01/18 01:46:30;;;;;;;19.55;4.50;;;6.00;99.90;;;6.81;100.00;102632.28;5014358;28;20113;-82
2022/01/18 01:48:59;;;;;;;31.35;4.93;;;6.00;99.90;;;6.82;100.00;102622.00;4995723;28;20106;-84
2022/01/18 01:51:30;;;;;;;26.48;5.32;;;6.00;99.90;;;6.84;100.00;102641.97;5000770;28;20042;-84
2022/01/18 01:54:00;;;;;;;25.10;5.50;;;6.00;99.90;;;6.84;100.00;102631.72;4996954;28;20030;-84
2022/01/18 01:56:30;;;;;;;30.05;5.07;;;6.00;99.90;;;6.97;100.00;102637.78;4977119;28;20085;-83
2022/01/18 01:58:58;;;;;;;28.55;4.85;;;6.00;99.90;;;7.07;100.00;102632.13;5010566;28;20034;-83
2022/01/18 02:01:25;;;;;;;21.00;4.50;;;6.10;99.90;;;7.12;100.00;102632.97;4976885;28;20113;-85
2022/01/18 02:03:53;;;;;;;23.50;4.05;;;6.10;99.90;;;7.14;100.00;102639.06;4977606;28;20469;-85
2022/01/18 02:06:21;;;;;;;20.02;4.13;;;6.10;99.90;;;7.16;100.00;102636.81;4977281;28;20454;-84
2022/01/18 02:08:49;;;;;;;23.92;4.50;;;6.10;99.90;;;7.12;100.00;102623.78;4977091;28;20108;-83
2022/01/18 02:11:14;;;;;;;20.60;3.80;;;6.10;99.90;;;7.13;100.00;102623.47;4977098;28;20045;-83
2022/01/18 02:13:41;;;;;;;19.35;3.35;;;6.10;99.90;;;7.09;100.00;102625.19;4976922;28;20026;-84
2022/01/18 02:21:48;;;;;;;16.80;3.53;;;6.10;99.90;;;7.12;100.00;102616.28;4953589;29;20043;-84
2022/01/18 02:24:19;;;;;;;26.05;3.72;;;6.10;99.90;;;7.18;100.00;102631.81;4937004;29;20515;-84
2022/01/18 02:26:45;;;;;;;18.52;3.67;;;6.10;99.90;;;7.11;100.00;102611.00;4958741;28;20383;-84
2022/01/18 02:29:12;;;;;;;19.63;3.53;;;6.10;99.90;;;7.10;100.00;102617.66;5009426;28;20106;-84
2022/01/18 02:31:39;;;;;;;14.60;3.30;;;6.10;99.90;;;7.06;100.00;102611.88;4992347;28;20035;-84
2022/01/18 02:34:17;;;;;;;20.35;3.92;;;6.00;99.90;;;7.03;100.00;102608.84;4976118;28;20027;-83
2022/01/18 02:36:44;;;;;;;20.58;3.88;;;6.00;99.90;;;7.04;100.00;102613.25;4976678;28;20527;-84
2022/01/18 02:39:13;;;;;;;21.45;3.85;;;6.00;99.90;;;7.06;100.00;102608.28;4976353;28;20120;-84
2022/01/18 02:41:39;;;;;;;20.55;5.30;;;6.00;99.90;;;7.09;100.00;102616.88;4976529;28;20496;-84
2022/01/18 02:44:12;;;;;;;32.03;6.43;;;6.00;99.90;;;7.18;100.00;102617.09;4993605;28;20541;-84
2022/01/18 02:46:42;;;;;;;28.30;4.60;;;6.00;99.90;;;7.17;100.00;102610.69;4976424;28;20030;-84
2022/01/18 02:49:08;;;;;;;28.42;5.43;;;6.10;99.90;;;7.18;100.00;102606.78;4976606;28;20030;-84
2022/01/18 02:51:35;;;;;;;22.08;4.45;;;6.10;99.90;;;7.16;100.00;102609.00;4976409;28;20088;-83
2022/01/18 02:54:15;;;;;;;15.63;4.07;;;6.10;99.90;;;7.12;100.00;102605.19;4976663;28;20034;-84
2022/01/18 02:56:53;;;;;;;32.35;5.50;;;6.00;99.90;;;7.10;100.00;102617.66;4976171;28;20090;-84
2022/01/18 02:59:46;;;;;;;27.67;5.50;;;6.00;99.90;;;7.12;100.00;102609.91;4976696;28;20060;-82
2022/01/18 03:05:19;;;;;;;24.33;5.25;;;6.00;99.90;;;7.09;100.00;102608.53;4994643;28;20037;-84
2022/01/18 03:07:45;;;;;;;29.15;5.45;;;6.00;99.90;;;7.15;100.00;102612.09;5009847;28;20027;-85
2022/01/18 03:10:15;;;;;;;24.38;5.78;;;6.00;99.90;;;7.21;100.00;102611.78;4976508;28;20034;-84
2022/01/18 03:12:41;;;;;;;26.10;5.93;;;6.10;99.90;;;7.22;100.00;102609.84;4992980;28;20035;-85
2022/01/18 03:15:09;;;;;;;28.15;5.38;;;6.10;99.90;;;7.24;100.00;102618.69;4963397;28;20076;-84
2022/01/18 03:17:36;;;;;;;21.25;5.28;;;6.10;99.90;;;7.19;100.00;102611.22;5011743;28;20142;-85
2022/01/18 03:20:06;;;;;;;28.35;4.97;;;6.00;99.90;;;7.20;100.00;102607.31;5012216;28;20137;-84
2022/01/18 03:22:33;;;;;;;19.30;5.07;;;6.00;99.90;;;7.15;100.00;102612.94;4995522;28;20031;-85
2022/01/18 03:25:03;;;;;;;21.75;5.15;;;5.90;99.90;;;7.11;100.00;102613.78;4978438;28;20038;-84
2022/01/18 03:30:14;;;;;;;32.45;7.93;;;6.00;99.90;;;7.08;100.00;102617.13;4983899;28;20089;-84
2022/01/18 03:32:41;;;;;;;32.25;7.82;;;5.90;99.90;;;7.19;100.00;102615.97;4980779;28;20062;-85
2022/01/18 03:35:10;;;;;;;36.58;8.48;;;6.00;99.90;;;7.21;100.00;102624.84;4965231;28;20037;-84
2022/01/18 03:37:36;;;;;;;38.95;9.25;;;6.00;99.90;;;7.23;100.00;102622.59;4959869;28;20031;-83
2022/01/18 03:40:06;;;;;;;37.63;7.85;;;6.10;99.90;;;7.28;100.00;102630.91;4975969;28;20089;-84
2022/01/18 03:42:37;;;;;;;41.05;9.90;;;6.10;99.90;;;7.31;100.00;102627.56;4959527;28;20023;-83
2022/01/18 03:45:15;;;;;;;42.88;8.38;;;6.10;99.90;;;7.27;100.00;102626.47;4959719;28;20079;-84
2022/01/18 03:47:45;;;;;;;37.72;7.93;;;6.10;99.90;;;7.26;100.00;102619.22;4959291;28;20093;-84
2022/01/18 03:50:15;;;;;;;37.05;7.97;;;6.10;99.90;;;7.29;100.00;102629.78;4959228;28;20041;-85
2022/01/18 03:52:44;;;;;;;32.90;6.78;;;6.10;99.90;;;7.15;100.00;102626.00;4959567;28;20045;-84
2022/01/18 03:55:14;;;;;;;38.22;6.72;;;6.10;99.90;;;7.16;100.00;102625.69;4959479;28;20045;-84
2022/01/18 03:57:40;;;;;;;41.85;6.90;;;6.10;99.90;;;7.14;100.00;102627.94;4959198;28;20041;-84
2022/01/18 04:00:21;;;;;;;22.05;6.13;;;6.10;99.90;;;7.09;100.00;102625.19;4959394;28;20362;-84
2022/01/18 04:02:49;;;;;;;35.75;6.28;;;6.10;99.90;;;7.09;100.00;102622.44;4959066;28;20023;-85
2022/01/18 04:05:16;;;;;;;36.97;5.68;;;6.00;99.90;;;7.13;100.00;102626.28;4959451;28;20045;-84
2022/01/18 04:07:43;;;;;;;28.73;5.47;;;6.10;99.90;;;7.12;100.00;102623.78;4959715;28;20065;-83
2022/01/18 04:10:10;;;;;;;24.17;5.30;;;6.10;99.90;;;7.11;100.00;102625.72;4958998;28;20035;-84
2022/01/18 04:12:36;;;;;;;28.80;5.15;;;6.10;99.90;;;7.11;100.00;102638.78;4977419;28;20035;-84
2022/01/18 04:15:07;;;;;;;32.83;4.68;;;6.00;99.90;;;7.12;100.00;102637.69;4960964;28;20023;-84
2022/01/18 04:25:54;;;;;;;;;;;6.10;99.90;;;7.21;100.00;102645.13;4984962;28;20556;-85
2022/01/18 04:31:07;;;;;;;39.75;5.93;;;6.10;99.90;;;7.19;100.00;102652.91;4997906;28;20037;-85
2022/01/18 04:33:37;;;;;;;25.35;4.93;;;6.10;99.90;;;7.27;100.00;102643.97;4983157;28;20650;-85
2022/01/18 04:36:08;;;;;;;20.83;4.65;;;6.10;99.90;;;7.29;100.00;102638.94;4981026;28;20049;-84
2022/01/18 04:38:39;;;;;;;30.42;5.07;;;6.10;99.90;;;7.12;100.00;102630.19;4982594;28;20030;-84
2022/01/18 04:41:14;;;;;;;27.40;4.95;;;6.10;99.90;;;6.99;100.00;102630.81;4995642;28;20053;-85
2022/01/18 04:48:52;;;;;;;22.98;4.03;;;6.10;99.90;;;7.31;100.00;102625.59;4995242;28;20540;-84
2022/01/18 04:51:18;;;;;;;24.65;4.68;;;6.00;99.90;;;7.31;100.00;102633.13;4976906;28;20072;-83
2022/01/18 04:53:53;;;;;;;24.95;4.50;;;6.10;99.90;;;7.32;100.00;102624.47;4977661;28;20034;-83
2022/01/18 04:57:52;;;;;;;21.90;3.92;;;6.10;99.90;;;7.11;100.00;102636.84;4978921;28;20126;-84
2022/01/18 04:59:14;;;;;;;21.88;4.85;;;6.10;99.90;;;6.93;100.00;102647.78;4993613;28;20023;-84
2022/01/18 05:01:45;;;;;;;23.88;4.03;;;6.00;99.90;;;6.92;100.00;102641.41;4977715;28;20034;-83
2022/01/18 05:04:11;;;;;;;34.53;5.65;;;6.00;99.90;;;6.85;100.00;102650.03;4977959;28;20031;-84
2022/01/18 05:06:37;;;;;;;20.00;3.85;;;6.10;99.90;;;6.82;100.00;102652.56;5010880;28;20391;-84
2022/01/18 05:09:10;;;;;;;19.83;4.20;;;6.00;99.90;;;6.81;100.00;102651.72;4978748;28;20030;-84
2022/01/18 05:12:05;;;;;;;25.20;5.20;;;6.00;99.90;;;6.82;100.00;102653.41;5011601;28;20101;-84
2022/01/18 05:14:35;;;;;;;22.80;5.53;;;6.00;99.90;;;6.77;100.00;102647.88;4997594;28;20586;-86
2022/01/18 05:24:31;;;;;;;19.73;5.82;;;5.90;99.90;;;6.82;100.00;102667.28;4997062;28;20093;-86
2022/01/18 05:27:00;;;;;;;27.50;6.00;;;5.90;99.90;;;6.78;100.00;102663.41;4977911;28;20030;-86
2022/01/18 05:29:28;;;;;;;29.75;6.55;;;6.00;99.90;;;6.80;100.00;102663.13;4978750;28;20072;-85
2022/01/18 05:31:58;;;;;;;22.00;4.35;;;6.00;99.90;;;6.76;100.00;102660.09;4977618;28;20034;-85
2022/01/18 05:34:24;;;;;;;21.75;4.93;;;6.00;99.90;;;6.76;100.00;102656.47;4977790;28;20026;-85
2022/01/18 05:36:50;;;;;;;27.30;7.28;;;6.00;99.90;;;6.81;100.00;102653.66;4986225;28;20295;-84
2022/01/18 05:39:16;;;;;;;20.48;6.18;;;6.00;99.90;;;6.87;100.00;102656.13;4998194;28;20043;-85
2022/01/18 05:41:45;;;;;;;28.65;7.10;;;6.00;99.90;;;6.98;100.00;102658.88;5011790;28;20039;-84
2022/01/18 05:44:11;;;;;;;29.75;7.57;;;6.00;99.90;;;6.93;100.00;102656.13;4977450;28;20125;-85
2022/01/18 05:46:37;;;;;;;28.13;7.30;;;6.10;99.90;;;6.98;100.00;102653.31;4977792;28;20126;-85
2022/01/18 05:49:03;;;;;;;28.05;7.03;;;6.10;99.90;;;6.92;100.00;102654.47;4977633;28;20077;-85
2022/01/18 05:51:36;;;;;;;30.35;7.78;;;6.10;99.90;;;6.87;100.00;102656.13;4978173;28;20038;-84
2022/01/18 05:54:03;;;;;;;31.48;6.90;;;6.00;99.90;;;6.83;100.00;102651.44;4977712;28;20026;-86
2022/01/18 05:56:29;;;;;;;30.02;6.50;;;6.00;99.90;;;6.78;100.00;102657.84;4994040;28;20545;-83
2022/01/18 05:58:59;;;;;;;24.58;6.65;;;6.00;99.90;;;6.77;100.00;102660.94;4977265;28;20031;-83
2022/01/18 06:01:27;;;;;;;27.25;7.47;;;5.90;99.90;;;6.75;100.00;102655.63;5011278;28;20077;-85
2022/01/18 06:09:12;;;;;;;26.42;6.75;;;6.00;99.90;;;6.78;100.00;102663.41;4998977;28;20418;-85
2022/01/18 06:11:40;;;;;;;23.38;7.05;;;5.90;99.90;;;6.72;100.00;102656.22;4977103;28;20037;-84
2022/01/18 06:14:06;;;;;;;34.78;7.47;;;5.90;99.90;;;6.71;100.00;102667.63;4977657;28;20061;-85
2022/01/18 06:16:32;;;;;;;22.65;6.65;;;5.90;99.90;;;6.78;100.00;102674.50;4977573;28;20152;-84
2022/01/18 06:18:58;;;;;;;35.45;8.18;;;5.90;99.90;;;6.76;100.00;102668.41;4977498;28;20147;-85
2022/01/18 06:21:25;;;;;;;27.23;8.10;;;5.90;99.90;;;6.75;100.00;102675.09;5012076;28;20031;-83
2022/01/18 06:23:51;;;;;;;28.48;6.95;;;5.90;99.90;;;6.77;100.00;102680.38;4976698;28;20045;-84
2022/01/18 06:26:18;;;;;;;20.15;6.63;;;5.90;99.90;;;6.76;100.00;102679.53;4965953;28;20035;-81
2022/01/18 06:28:45;;;;;;;34.33;7.85;;;6.00;99.90;;;6.69;100.00;102679.00;4958820;28;20105;-82
2022/01/18 06:31:13;;;;;;;30.70;6.75;;;5.90;99.90;;;6.77;100.00;102675.66;4959839;28;20117;-83
2022/01/18 06:33:39;;;;;;;24.00;9.20;;;5.90;99.90;;;6.80;100.00;102682.56;4959601;28;20031;-84
2022/01/18 06:36:06;;;;;;;27.85;6.93;;;5.90;99.90;;;6.75;100.00;102680.63;4957878;28;20035;-82
2022/01/18 06:38:32;;;;;;;22.55;6.82;;;5.90;99.90;;;6.74;100.00;102684.50;4958361;28;20095;-82
2022/01/18 06:40:59;;;;;;;25.63;6.90;;;5.90;99.90;;;6.76;100.00;102692.59;4957318;28;20031;-83
2022/01/18 06:43:25;;;;;;;33.72;6.85;;;5.90;99.90;;;6.70;100.00;102685.38;4956571;28;20057;-81
2022/01/18 06:45:51;;;;;;;28.42;6.47;;;5.90;99.90;;;6.73;100.00;102690.38;4958629;28;20113;-82
2022/01/18 06:48:17;;;;;;;34.42;7.70;;;5.90;99.90;;;6.73;100.00;102688.44;4961522;28;20031;-83
2022/01/18 06:50:43;;;;;;;19.13;6.65;;;5.90;99.90;;;6.70;100.00;102685.38;4979612;28;20035;-81
2022/01/18 06:53:08;;;;;;;20.65;6.18;;;5.90;99.90;;;6.65;100.00;102683.44;4977762;28;20406;-82
2022/01/18 06:55:34;;;;;;;24.75;7.25;;;5.80;99.90;;;6.70;100.00;102691.78;4967912;28;20065;-84
2022/01/18 06:58:01;;;;;;;26.10;7.55;;;5.80;99.90;;;6.64;100.00;102687.34;4968407;28;20041;-82
2022/01/18 07:00:28;;;;;;;30.70;8.52;;;5.80;99.90;;;6.67;100.00;102695.13;4962915;28;20071;-81
2022/01/18 07:02:53;;;;;;;31.38;8.93;;;5.90;99.90;;;6.75;100.00;102694.53;4964103;28;20490;-81
2022/01/18 07:05:32;;;;;;;36.88;10.38;;;5.90;99.90;;;6.76;100.00;102700.91;4963456;28;20030;-83
2022/01/18 07:07:58;;;;;;;32.80;10.27;;;5.90;99.90;;;6.80;100.00;102699.25;4963631;28;20050;-81
2022/01/18 07:10:34;;;;;;;37.53;9.35;;;6.00;99.90;;;6.79;100.00;102697.56;4963332;28;20057;-82
2022/01/18 07:13:01;;;;;;;27.60;8.98;;;6.00;99.90;;;6.78;100.00;102699.50;4963469;28;20102;-82
2022/01/18 07:15:29;;;;;;;27.77;8.73;;;6.00;99.90;;;6.71;100.00;102698.97;4962240;28;20042;-82
2022/01/18 07:17:57;;;;;;;27.85;8.30;;;5.90;99.90;;;6.71;100.00;102709.28;4980466;28;20038;-81
2022/01/18 07:20:38;;;;;;;35.22;9.90;;;5.90;99.90;;;6.72;100.00;102711.75;4979400;28;20033;-82
2022/01/18 07:23:13;;;;;;;33.28;10.02;;;5.90;99.90;;;6.68;100.00;102705.09;4981383;28;20022;-84
2022/01/18 07:26:19;;;;;;;28.00;8.40;;;5.90;99.90;;;6.69;100.00;102712.31;4963618;28;20038;-83
2022/01/18 07:28:45;;;;;;;21.25;7.88;;;5.80;99.90;;;6.65;100.00;102711.22;4961930;28;20035;-82
2022/01/18 07:31:11;;;;;;;18.80;7.18;;;5.90;99.90;;;6.65;100.00;102714.00;4960701;28;20038;-79
2022/01/18 07:34:55;;;;;;;22.95;8.57;;;5.90;99.90;;;6.63;100.00;102710.69;4961170;28;20109;-84
2022/01/18 07:37:06;;;;;;;;;;;;;;;;;;;;;
2022/01/18 07:40:16;;;;;;;29.35;9.40;;;5.90;99.90;;;6.69;100.00;102725.38;4980227;28;20727;-83
2022/01/18 07:42:51;;;;;;;28.33;8.68;;;5.90;99.90;;;6.69;100.00;102720.66;4973467;28;20031;-83
2022/01/18 07:45:30;;;;;;;21.50;8.67;;;5.90;99.90;;;6.73;100.00;102726.47;4979455;28;20062;-82
2022/01/18 07:47:56;;;;;;;19.90;7.40;;;5.90;99.90;;;6.73;100.00;102724.53;4963497;28;20274;-83
2022/01/18 07:50:31;;;;;;;38.60;11.75;;;5.90;99.90;;;6.79;100.00;102722.56;4961030;28;20446;-86
2022/01/18 07:52:57;;;;;;;30.53;11.73;;;5.90;99.90;;;6.80;100.00;102727.84;4978624;28;20034;-83
2022/01/18 07:55:31;;;;;;;33.28;10.32;;;5.90;99.90;;;6.78;100.00;102721.72;4976618;28;20661;-84
2022/01/18 07:57:59;;;;;;;25.15;9.65;;;6.00;99.90;;;6.82;100.00;102727.56;4960374;28;20030;-83
2022/01/18 08:00:26;;;;;;;42.42;12.10;;;6.00;99.90;;;6.85;100.00;102727.81;4976026;28;20026;-85
2022/01/18 08:02:55;;;;;;;29.67;9.68;;;6.00;99.90;;;6.88;100.00;102729.19;4960033;28;20397;-84
2022/01/18 08:05:33;;;;;;;24.83;9.10;;;6.00;99.90;;;6.88;100.00;102737.53;4959333;28;20075;-84
2022/01/18 08:08:02;;;;;;;24.10;10.05;;;6.10;99.90;;;6.89;100.00;102733.66;4960015;28;20045;-84
2022/01/18 08:10:42;;;;;;;;;;;;;;;;;;;;;
2022/01/18 08:13:11;;;;;;;29.60;11.40;;;6.10;99.90;;;6.92;100.00;102729.47;4976843;28;20041;-84
2022/01/18 08:15:40;;;;;;;39.65;12.38;;;6.10;99.90;;;7.02;100.00;102746.94;4960002;28;20041;-82
2022/01/18 08:18:13;;;;;;;26.67;11.57;;;6.20;99.90;;;7.00;100.00;102738.03;4959888;28;20023;-80
2022/01/18 08:20:47;;;;;;;29.67;12.48;;;6.20;99.90;;;7.09;100.00;102746.63;4960020;28;20475;-83
2022/01/18 08:23:13;;;;;;;32.17;12.05;;;6.20;99.90;;;7.06;100.00;102747.22;4960418;28;20030;-81
2022/01/18 08:25:39;;;;;;;38.85;14.18;;;6.20;99.90;;;7.15;100.00;102746.34;4960151;28;20114;-84
2022/01/18 08:28:08;;;;;;;38.75;15.35;;;6.20;99.90;;;7.14;100.00;102753.00;4961592;28;20486;-83
2022/01/18 08:30:34;;;;;;;45.95;15.55;;;6.20;99.90;;;7.17;100.00;102746.88;4960707;28;20041;-82
2022/01/18 08:33:00;;;;;;;41.17;16.23;;;6.30;99.90;;;7.18;100.00;102743.00;4959936;28;20038;-84
2022/01/18 08:35:31;;;;;;;40.22;16.55;;;6.30;99.90;;;7.26;100.00;102745.16;4961460;28;20041;-83
2022/01/18 08:38:10;;;;;;;;;;;;;;;;;;;;;
2022/01/18 08:40:36;;;;;;;46.80;16.55;;;6.40;99.90;;;7.41;100.00;102750.66;4981852;28;20090;-89
2022/01/18 08:43:02;;;;;;;39.25;15.38;;;6.40;99.90;;;7.42;100.00;102748.69;4980942;28;20051;-84
2022/01/18 08:45:30;;;;;;;54.47;17.38;;;6.50;99.90;;;7.47;100.00;102754.25;4959515;28;20066;-84
2022/01/18 08:47:59;;;;;;;38.80;16.55;;;6.50;99.90;;;7.47;100.00;102751.47;4959776;28;20027;-86
2022/01/18 08:50:34;;;;;;;47.85;17.98;;;6.50;99.90;;;7.47;100.00;102748.69;4959465;28;20114;-83
2022/01/18 08:53:03;;;;;;;43.65;16.85;;;6.50;99.90;;;7.55;100.00;102756.41;4960210;28;20097;-85
2022/01/18 08:55:29;;;;;;;39.42;16.58;;;6.60;99.90;;;7.51;100.00;102748.94;4959379;28;20530;-81
2022/01/18 08:57:57;;;;;;;48.17;20.02;;;6.60;99.90;;;7.53;100.00;102753.09;4959584;28;20027;-84
2022/01/18 09:00:23;;;;;;;50.80;19.27;;;6.60;99.90;;;7.60;100.00;102758.34;4959738;28;20031;-83
2022/01/18 09:02:49;;;;;;;41.13;19.45;;;6.60;99.90;;;7.59;100.00;102757.50;4959359;28;20402;-83
2022/01/18 09:08:01;;;;;;;48.47;16.95;;;6.60;99.90;;;7.70;100.00;102761.06;5034145;28;20057;-82
2022/01/18 09:10:27;;;;;;;41.63;16.33;;;6.70;99.90;;;7.69;100.00;102764.94;5016980;28;20430;-84
2022/01/18 09:12:56;;;;;;;39.25;15.48;;;6.70;99.90;;;7.68;100.00;102766.91;5018029;28;20028;-84
2022/01/18 09:15:25;;;;;;;38.92;15.00;;;6.70;99.90;;;7.73;100.00;102766.88;5017247;28;20089;-82
2022/01/18 09:17:54;;;;;;;34.03;15.02;;;6.70;99.90;;;7.73;100.00;102763.25;5017647;28;20044;-81
2022/01/18 09:20:20;;;;;;;44.10;16.45;;;6.80;99.90;;;7.80;100.00;102786.03;5027169;28;20072;-80
2022/01/18 09:22:48;;;;;;;33.20;14.95;;;6.90;99.90;;;7.90;100.00;102777.59;5019852;28;20025;-80
2022/01/18 09:25:42;;;;;;;35.63;16.85;;;6.90;99.90;;;7.96;100.00;102776.47;5039849;28;20029;-82
2022/01/18 09:28:09;;;;;;;34.35;14.68;;;7.00;99.90;;;8.00;100.00;102785.88;5036073;28;20041;-80
2022/01/18 09:30:39;;;;;;;35.70;14.90;;;7.00;99.90;;;8.02;100.00;102783.66;5053314;28;20056;-80
2022/01/18 09:33:06;;;;;;;33.00;15.25;;;7.00;99.90;;;8.10;100.00;102791.38;5037976;28;20119;-79
2022/01/18 09:35:38;;;;;;;31.15;13.55;;;7.10;99.90;;;8.07;100.00;102788.34;5037275;28;20060;-81
2022/01/18 09:38:06;;;;;;;37.50;15.77;;;7.10;99.90;;;8.10;100.00;102799.72;5054978;28;20021;-80
2022/01/18 09:40:38;;;;;;;34.33;15.43;;;7.10;99.90;;;8.12;100.00;102791.94;5054531;28;20029;-78
2022/01/18 09:43:10;;;;;;;30.90;14.00;;;7.10;99.90;;;8.11;100.00;102781.06;5054871;28;20079;-80
2022/01/18 09:45:39;;;;;;;33.03;14.20;;;7.20;99.90;;;8.12;100.00;102793.88;5055959;28;20029;-78
2022/01/18 09:48:05;;;;;;;31.23;14.82;;;7.20;99.90;;;8.13;100.00;102787.16;5058595;28;20075;-80
2022/01/18 09:50:37;;;;;;;44.85;21.92;;;7.20;99.90;;;8.14;100.00;102791.63;5041977;28;20029;-82
2022/01/18 09:53:09;;;;;;;32.72;17.13;;;7.20;99.90;;;8.15;100.00;102799.69;5056656;28;20055;-79
2022/01/18 09:55:37;;;;;;;42.58;19.17;;;7.20;99.90;;;8.16;100.00;102800.50;5056613;28;20400;-78
2022/01/18 09:58:07;;;;;;;52.13;23.27;;;7.20;99.90;;;8.14;100.00;102798.03;5056879;28;20036;-80
2022/01/18 10:00:38;;;;;;;35.83;15.90;;;7.20;99.90;;;8.17;100.00;102804.97;5040966;28;20037;-80
2022/01/18 10:03:41;;;;;;;33.78;14.93;;;7.20;99.90;;;8.16;100.00;102803.28;5042848;28;20373;-79
2022/01/18 10:06:10;;;;;;;32.58;13.02;;;7.20;99.90;;;8.22;100.00;102802.97;5040819;28;20615;-80
2022/01/18 10:08:42;;;;;;;33.15;13.85;;;7.20;99.90;;;8.25;100.00;102805.16;5040981;28;20039;-80
2022/01/18 10:11:17;;;;;;;35.70;14.77;;;7.30;99.90;;;8.29;100.00;102805.44;5059148;28;20021;-82
2022/01/18 10:13:47;;;;;;;33.57;16.27;;;7.30;99.90;;;8.30;100.00;102804.34;5059045;28;20094;-80
2022/01/18 10:16:21;;;;;;;35.65;12.70;;;7.30;99.90;;;8.38;100.00;102806.50;5059395;28;20033;-79
2022/01/18 10:18:55;;;;;;;29.65;13.48;;;7.40;99.90;;;8.52;100.00;102804.69;5057237;28;20051;-80
2022/01/18 10:21:44;;;;;;;30.33;14.18;;;7.50;99.90;;;8.61;100.00;102802.94;5057771;28;20104;-80
2022/01/18 10:24:25;;;;;;;33.35;13.60;;;7.60;99.90;;;8.74;100.00;102805.03;5063615;28;20029;-81
2022/01/18 10:26:56;;;;;;;31.65;12.60;;;7.70;99.90;;;8.74;100.00;102798.63;5048278;28;20053;-80
2022/01/18 10:29:47;;;;;;;34.10;13.60;;;7.70;99.90;;;8.77;100.00;102793.31;5043965;28;20056;-79
2022/01/18 10:32:19;;;;;;;28.85;13.02;;;7.80;99.90;;;8.80;100.00;102801.06;5041934;28;20029;-80
2022/01/18 10:37:28;;;;;;;31.58;12.45;;;7.80;99.90;;;8.90;100.00;102792.63;5042811;28;20041;-81
2022/01/18 10:40:07;;;;;;;31.55;12.80;;;7.90;99.90;;;8.90;100.00;102786.22;5060955;28;20116;-78
2022/01/18 10:42:54;;;;;;;29.65;11.93;;;7.90;99.90;;;8.90;100.00;102784.25;5044203;28;20083;-81
2022/01/18 10:45:33;;;;;;;32.65;13.73;;;7.90;99.90;;;8.90;100.00;102777.84;5041268;28;20036;-82
2022/01/18 10:48:11;;;;;;;26.85;11.85;;;7.90;99.90;;;8.88;100.00;102778.16;5041783;28;20057;-80
2022/01/18 10:50:46;;;;;;;26.33;11.48;;;7.90;99.90;;;8.95;100.00;102775.84;5041663;28;20030;-80
2022/01/18 10:53:25;;;;;;;29.58;12.07;;;7.90;99.90;;;8.91;100.00;102769.19;5066722;28;20037;-77
2022/01/18 10:56:14;;;;;;;26.00;12.10;;;7.90;99.90;;;8.86;100.00;102768.44;5042594;28;20033;-80
2022/01/18 10:58:55;;;;;;;30.50;10.88;;;7.90;99.90;;;8.84;100.00;102759.53;5040451;28;20021;-80
2022/01/18 11:01:23;;;;;;;25.58;11.98;;;7.80;99.90;;;8.85;100.00;102761.19;5039935;28;20033;-79
2022/01/18 11:04:19;;;;;;;31.70;11.13;;;7.80;99.90;;;8.88;100.00;102769.78;5056491;28;20453;-79
2022/01/18 11:07:06;;;;;;;25.02;10.35;;;7.80;99.90;;;8.94;100.00;102765.81;5054928;28;20041;-81
2022/01/18 11:09:33;;;;;;;24.27;9.45;;;7.90;99.90;;;8.94;100.00;102765.81;5054902;28;20504;-79
2022/01/18 11:12:00;;;;;;;24.25;10.05;;;7.90;99.90;;;9.05;100.00;102763.75;5036890;28;20029;-82
2022/01/18 11:14:29;;;;;;;24.63;9.70;;;8.00;99.90;;;9.15;100.00;102768.38;5039027;28;20030;-79
2022/01/18 11:16:57;;;;;;;30.75;10.90;;;8.10;99.90;;;9.26;100.00;102761.53;5039033;28;20026;-78
2022/01/18 11:19:37;;;;;;;29.13;10.45;;;8.20;99.90;;;9.32;100.00;102766.75;5037527;28;20036;-82
2022/01/18 11:22:10;;;;;;;22.50;8.02;;;8.30;99.90;;;9.37;100.00;102761.13;5038765;28;20484;-81
2022/01/18 11:24:47;;;;;;;24.05;8.93;;;8.30;99.90;;;9.31;100.00;102756.72;5037064;28;20033;-80
2022/01/18 11:27:18;;;;;;;21.10;7.88;;;8.30;99.90;;;9.29;100.00;102752.56;5040251;28;20032;-80
2022/01/18 11:29:49;;;;;;;18.05;7.45;;;8.30;99.90;;;9.35;100.00;102748.56;5039472;28;20095;-80
2022/01/18 11:32:18;;;;;;;30.23;14.02;;;8.30;99.90;;;9.33;100.00;102743.31;5060116;28;20033;-82
2022/01/18 11:35:31;;;;;;;20.63;8.93;;;8.30;99.90;;;9.31;100.00;102747.53;5059066;28;20108;-79
2022/01/18 11:38:16;;;;;;;23.77;8.27;;;8.30;99.90;;;9.42;100.00;102743.47;5045843;28;20594;-83
2022/01/18 11:40:43;;;;;;;21.48;7.53;;;8.40;99.90;;;9.54;100.00;102746.63;5070924;28;20076;-82
2022/01/18 11:43:14;;;;;;;27.52;9.15;;;8.40;99.90;;;9.66;100.00;102743.41;5062294;28;20033;-80
2022/01/18 11:45:44;;;;;;;18.55;8.10;;;8.50;99.90;;;9.79;100.00;102732.31;5063828;28;20502;-78
2022/01/18 11:48:22;;;;;;;18.40;7.60;;;8.70;99.90;;;9.99;100.00;102733.94;5059417;28;20108;-80